Aérodrome :
LOGIN :

S'inscrire | Disclaimer

   EN    FR    IT 

 










Légende :    VFR   VFR Marginal   IFR   IFR Intensif   IFR Très Intensif
Visi : 
Plafond : 
>= 8 km
>= 3000ft
5 à 8 km
1000 à 3000 ft
1500m à 5 km
500 à 1000 ft
800 à 1500m
200 à 500 ft
< 800m
< 200 ft
Symboles :   Orages  Brouillard  Fortes neiges  Fortes précipitations  Vent > 20 kt
SIGMETs :   Divers  Orages  Givrage  Turbulence  Onde Orograph.  Cendres Volcan.







- Altitude de l'aérodrome : 741 ft
- Code IATA : JKG


ESGJ - Jönköping

DERNIER METAR :
  • 181920Z 20008KT 6000 -SN SCT008 BKN012 M00/M01 Q1020 R19/790042

METARs EXPIRÉS :
  • 181850Z 20007KT 6000 -SN SCT008 BKN014 M01/M01 Q1021 R19/790042
  • 181820Z 19008KT 2500 -SN SCT002 BKN013 M00/M01 Q1021 R19/19//70
  • 181750Z 19007KT 2400 SN SCT012 BKN022 M00/M01 Q1021 R19/19//70
  • 181720Z 19006KT 9999 SCT012 BKN018 M00/M01 Q1021 R19/19//70
  • 181650Z 19007KT 9999 FEW010 BKN021 M00/M01 Q1021 R19/19//70

TAF TAF ESGJ
Valide du 18 à 18h jusqu'au 19 à 02h UTC


181730Z 1818/1902 20007KT 8000 -SN SCT010 BKN020
TEMPO 1818/1902 2500 SN VV008
Pas de NOTAMs connus pour ce terrain.



MET'MAP, la Météo Aéronautique d'un coup d'oeil ! - Copyright ORBIFLY Décembre 2007 - Disclaimer

ORBIFLY MET'MAP TEAM :

Programmation & Développement : Alexandra Zaïnal
Conception & Développement : Baudouin d'Aumeries
Co-Programmation & Développement : Marc-Olivier Méhu
Soutien technique & logistique : Manuel Goepfert

Contact : metmap@orbifly.com




SOURCES & CREDITS :

   NOAA